Time;durP1;ratioP1;P1;durP2;ratioP2;P2;SDS_P1;SDS_P2;PMS_P1;PMS_P2;Temp;Humidity;BMP_temperature;BMP_pressure;BME280_temperature;BME280_humidity;BME280_pressure;Samples;Min_cycle;Max_cycle;Signal;HPM_P1;HPM_P2
2023/06/13 00:01:13;;;;;;;11.52;7.10;;;19.20;99.90;;;;;;5049431;28;20426;-73
2023/06/13 00:03:40;;;;;;;11.70;6.93;;;19.10;99.90;;;;;;5015996;28;20434;-73
2023/06/13 00:06:07;;;;;;;10.03;7.20;;;19.10;99.90;;;;;;5011085;28;20790;-73
2023/06/13 00:08:34;;;;;;;11.23;7.40;;;19.20;99.90;;;;;;5041400;28;20416;-73
2023/06/13 00:11:01;;;;;;;12.18;7.35;;;19.20;99.90;;;;;;5036304;28;20969;-73
2023/06/13 00:13:27;;;;;;;11.65;7.25;;;19.20;99.90;;;;;;5011112;28;20920;-73
2023/06/13 00:15:56;;;;;;;14.98;7.20;;;19.20;99.90;;;;;;5025728;28;20421;-73
2023/06/13 00:18:23;;;;;;;10.38;7.13;;;19.10;99.90;;;;;;5015764;28;20503;-73
2023/06/13 00:20:54;;;;;;;11.02;7.28;;;19.10;99.90;;;;;;4996664;28;20423;-73
2023/06/13 00:23:22;;;;;;;12.10;7.75;;;19.30;99.90;;;;;;5008509;28;20427;-73
2023/06/13 00:25:48;;;;;;;14.52;8.00;;;19.30;99.90;;;;;;5017316;28;20411;-72
2023/06/13 00:28:15;;;;;;;11.50;7.03;;;19.40;99.90;;;;;;5007271;28;20427;-73
2023/06/13 00:30:41;;;;;;;8.43;7.28;;;19.40;99.90;;;;;;5016328;28;20417;-72
2023/06/13 00:33:07;;;;;;;10.50;7.78;;;19.40;99.90;;;;;;5008880;28;20428;-72
2023/06/13 00:35:35;;;;;;;10.75;7.90;;;19.30;99.90;;;;;;5011965;28;20414;-72
2023/06/13 00:38:01;;;;;;;12.82;8.23;;;19.30;99.90;;;;;;5017136;28;20708;-72
2023/06/13 00:40:28;;;;;;;10.70;8.00;;;19.40;99.90;;;;;;5011789;28;20792;-72
2023/06/13 00:42:57;;;;;;;12.15;8.20;;;19.50;99.90;;;;;;5011588;28;20418;-72
2023/06/13 00:45:29;;;;;;;11.90;8.30;;;19.60;99.90;;;;;;5042841;28;20423;-72
2023/06/13 00:48:03;;;;;;;12.77;7.85;;;19.60;99.90;;;;;;5013901;28;20415;-72
2023/06/13 00:50:40;;;;;;;12.05;8.18;;;19.70;99.90;;;;;;5012571;28;20425;-72
2023/06/13 00:53:16;;;;;;;15.05;8.27;;;19.70;99.90;;;;;;5013079;28;20510;-72
2023/06/13 00:55:44;;;;;;;12.38;8.45;;;19.70;99.90;;;;;;5041304;28;20428;-72
2023/06/13 00:58:12;;;;;;;12.55;8.52;;;19.70;99.90;;;;;;5000681;28;20419;-72
2023/06/13 01:00:43;;;;;;;11.63;8.23;;;19.60;99.90;;;;;;5015601;28;20424;-72
2023/06/13 01:03:14;;;;;;;11.48;8.27;;;19.70;99.90;;;;;;5016229;28;20424;-74
2023/06/13 01:05:47;;;;;;;14.48;8.75;;;19.70;99.90;;;;;;5012186;28;20485;-74
2023/06/13 01:08:21;;;;;;;12.50;8.75;;;19.60;99.90;;;;;;5043831;28;20410;-74
2023/06/13 01:10:59;;;;;;;13.88;8.77;;;19.60;99.90;;;;;;5032698;28;20425;-74
2023/06/13 01:13:38;;;;;;;13.23;8.18;;;19.60;99.90;;;;;;5012882;28;21311;-74
2023/06/13 01:16:24;;;;;;;11.77;8.93;;;19.70;99.90;;;;;;5026229;28;20465;-74
2023/06/13 01:18:53;;;;;;;13.35;8.57;;;19.70;99.90;;;;;;5013543;28;20941;-74
2023/06/13 01:21:24;;;;;;;12.50;8.57;;;19.70;99.90;;;;;;5040794;28;20523;-74
2023/06/13 01:24:12;;;;;;;13.73;8.70;;;19.60;99.90;;;;;;5015069;28;20422;-74
2023/06/13 01:26:56;;;;;;;11.88;8.77;;;19.60;99.90;;;;;;5044176;28;20421;-73
2023/06/13 01:29:23;;;;;;;10.90;8.70;;;19.60;99.90;;;;;;5015987;28;20455;-74
2023/06/13 01:31:55;;;;;;;13.32;9.50;;;19.60;99.90;;;;;;5012849;28;20423;-73
2023/06/13 01:34:24;;;;;;;13.73;8.95;;;19.60;99.90;;;;;;5012654;28;20522;-74
2023/06/13 01:36:51;;;;;;;12.57;8.55;;;19.50;99.90;;;;;;5014111;28;20427;-72
2023/06/13 01:39:17;;;;;;;12.02;8.65;;;19.50;99.90;;;;;;5013168;28;20429;-72
2023/06/13 01:41:43;;;;;;;14.95;8.75;;;19.50;99.90;;;;;;5012780;28;20453;-72
2023/06/13 01:44:19;;;;;;;12.40;8.60;;;19.50;99.90;;;;;;5039444;28;20779;-72
2023/06/13 01:47:06;;;;;;;14.07;9.38;;;19.40;99.90;;;;;;5009942;28;20424;-72
2023/06/13 01:50:31;;;;;;;14.57;9.20;;;19.30;99.90;;;;;;5010683;28;20415;-72
2023/06/13 01:53:36;;;;;;;13.68;9.00;;;19.30;99.90;;;;;;5013077;28;20419;-72
2023/06/13 01:56:11;;;;;;;13.10;9.00;;;19.40;99.90;;;;;;5009757;28;20505;-72
2023/06/13 01:58:59;;;;;;;13.23;8.90;;;19.40;99.90;;;;;;5024024;28;20482;-72
2023/06/13 02:01:33;;;;;;;10.33;8.60;;;19.40;99.90;;;;;;5013469;28;20488;-73
2023/06/13 02:04:06;;;;;;;11.88;9.00;;;19.50;99.90;;;;;;5008495;28;20981;-72
2023/06/13 02:06:32;;;;;;;12.00;8.60;;;19.40;99.90;;;;;;5007324;28;20954;-72
2023/06/13 02:08:58;;;;;;;13.27;9.10;;;19.50;99.90;;;;;;5009481;28;20420;-72
2023/06/13 02:11:27;;;;;;;12.23;9.13;;;19.50;99.90;;;;;;5020367;28;20470;-72
2023/06/13 02:13:53;;;;;;;12.05;8.60;;;19.50;99.90;;;;;;5012788;28;20456;-72
2023/06/13 02:16:25;;;;;;;11.50;8.80;;;19.60;99.90;;;;;;5040040;28;20856;-72
2023/06/13 02:18:55;;;;;;;12.25;9.43;;;19.50;99.90;;;;;;5016268;28;20452;-72
2023/06/13 02:21:22;;;;;;;12.77;9.02;;;19.50;99.90;;;;;;5011169;28;20487;-72
2023/06/13 02:23:51;;;;;;;12.00;9.27;;;19.50;99.90;;;;;;5028015;28;20426;-72
2023/06/13 02:26:19;;;;;;;12.82;9.32;;;19.50;99.90;;;;;;5013598;28;20531;-72
2023/06/13 02:28:46;;;;;;;14.07;9.50;;;19.50;99.90;;;;;;5046296;28;20446;-72
2023/06/13 02:31:12;;;;;;;16.58;9.95;;;19.50;99.90;;;;;;5013461;28;20417;-72
2023/06/13 02:33:38;;;;;;;14.20;9.43;;;19.50;99.90;;;;;;5009272;28;20419;-72
2023/06/13 02:36:06;;;;;;;11.50;9.23;;;19.40;99.90;;;;;;5040810;28;20436;-72
2023/06/13 02:38:32;;;;;;;11.15;9.25;;;19.40;99.90;;;;;;5011163;28;20428;-72
2023/06/13 02:40:59;;;;;;;12.83;9.03;;;19.40;99.90;;;;;;5018503;28;20446;-72
2023/06/13 02:43:25;;;;;;;13.88;9.13;;;19.40;99.90;;;;;;5014079;28;20433;-72
2023/06/13 02:45:52;;;;;;;12.68;8.90;;;19.50;99.90;;;;;;5049161;28;20839;-72
2023/06/13 02:48:20;;;;;;;11.57;8.30;;;19.50;99.90;;;;;;5017393;28;20416;-72
2023/06/13 02:50:46;;;;;;;10.93;8.37;;;19.40;99.90;;;;;;5045262;28;20458;-73
2023/06/13 02:53:13;;;;;;;12.70;8.63;;;19.40;99.90;;;;;;5011472;28;21054;-72
2023/06/13 02:55:44;;;;;;;12.27;8.38;;;19.40;99.90;;;;;;5016441;28;20735;-72
2023/06/13 02:58:10;;;;;;;10.13;8.18;;;19.30;99.90;;;;;;5015359;28;20419;-72
2023/06/13 03:00:37;;;;;;;13.63;8.65;;;19.30;99.90;;;;;;5017442;28;20430;-72
2023/06/13 03:03:03;;;;;;;10.18;8.48;;;19.30;99.90;;;;;;5014266;28;20411;-72
2023/06/13 03:05:32;;;;;;;11.60;8.57;;;19.30;99.90;;;;;;5009707;28;20424;-72
2023/06/13 03:07:59;;;;;;;10.25;8.50;;;19.30;99.90;;;;;;5007859;28;20415;-72
2023/06/13 03:10:25;;;;;;;11.38;8.02;;;19.30;99.90;;;;;;5010889;28;20794;-72
2023/06/13 03:12:51;;;;;;;10.15;8.18;;;19.30;99.90;;;;;;5014197;28;20427;-72
2023/06/13 03:15:18;;;;;;;12.43;8.50;;;19.30;99.90;;;;;;5011485;28;20416;-72
2023/06/13 03:17:45;;;;;;;11.43;8.27;;;19.30;99.90;;;;;;5012073;28;20424;-72
2023/06/13 03:20:12;;;;;;;13.52;8.50;;;19.30;99.90;;;;;;5013941;28;21114;-72
2023/06/13 03:22:38;;;;;;;9.98;8.32;;;19.40;99.90;;;;;;5022286;28;20423;-72
2023/06/13 03:25:05;;;;;;;10.75;8.48;;;19.40;99.90;;;;;;5019928;28;20964;-72
2023/06/13 03:27:35;;;;;;;10.93;8.93;;;19.40;99.90;;;;;;5013607;28;20415;-72
2023/06/13 03:30:02;;;;;;;12.57;9.02;;;19.40;99.90;;;;;;5049916;28;20419;-72
2023/06/13 03:32:28;;;;;;;12.55;8.77;;;19.50;99.90;;;;;;5048516;28;20409;-72
2023/06/13 03:34:55;;;;;;;12.03;9.03;;;19.50;99.90;;;;;;5009642;28;21258;-72
2023/06/13 03:37:22;;;;;;;13.23;9.20;;;19.50;99.90;;;;;;5012235;28;20428;-72
2023/06/13 03:39:49;;;;;;;12.00;9.10;;;19.60;99.90;;;;;;5018583;28;20414;-72
2023/06/13 03:42:15;;;;;;;13.17;9.43;;;19.60;99.90;;;;;;5045599;28;20472;-72
2023/06/13 03:44:46;;;;;;;11.05;9.38;;;19.60;99.90;;;;;;5029413;28;20930;-72
2023/06/13 03:47:13;;;;;;;10.57;8.63;;;19.70;99.90;;;;;;5016036;28;20494;-72
2023/06/13 03:49:39;;;;;;;13.00;8.82;;;19.70;99.90;;;;;;5017234;28;20822;-72
2023/06/13 03:52:06;;;;;;;12.35;9.32;;;19.70;99.90;;;;;;5008950;28;20438;-72
2023/06/13 03:54:33;;;;;;;13.23;8.98;;;19.80;99.90;;;;;;5013457;28;20428;-72
2023/06/13 03:56:59;;;;;;;10.77;9.30;;;19.70;99.90;;;;;;5014542;28;20517;-72
2023/06/13 03:59:26;;;;;;;12.50;8.75;;;19.70;99.90;;;;;;5013126;28;20444;-72
2023/06/13 04:01:52;;;;;;;14.05;9.10;;;19.70;99.90;;;;;;5014891;28;20537;-72
2023/06/13 04:04:18;;;;;;;12.93;8.95;;;19.80;99.90;;;;;;5041296;28;20419;-72
2023/06/13 04:06:47;;;;;;;10.98;8.77;;;19.80;99.90;;;;;;4999858;28;20422;-72
2023/06/13 04:09:14;;;;;;;12.13;9.10;;;19.80;99.90;;;;;;5043851;28;20907;-72
2023/06/13 04:11:40;;;;;;;11.77;8.90;;;19.80;99.90;;;;;;5044178;28;20837;-72
2023/06/13 04:14:07;;;;;;;12.60;9.18;;;19.90;99.90;;;;;;5009715;28;20428;-72
2023/06/13 04:16:33;;;;;;;11.32;9.10;;;19.90;99.90;;;;;;5039527;28;20420;-72
2023/06/13 04:19:01;;;;;;;12.40;9.43;;;20.00;99.90;;;;;;5023888;28;20416;-72
2023/06/13 04:21:29;;;;;;;12.73;9.02;;;20.00;99.90;;;;;;5007048;28;20424;-72
2023/06/13 04:23:56;;;;;;;11.57;8.95;;;20.10;99.90;;;;;;5024775;28;20433;-72
2023/06/13 04:26:23;;;;;;;12.65;9.02;;;20.20;99.90;;;;;;5044321;28;20403;-72
2023/06/13 04:28:50;;;;;;;11.27;9.00;;;20.20;99.90;;;;;;5024801;28;20583;-72
2023/06/13 04:31:17;;;;;;;12.70;9.73;;;20.20;99.90;;;;;;5017337;28;20413;-72
2023/06/13 04:33:46;;;;;;;11.40;9.40;;;20.30;99.90;;;;;;5044121;28;21034;-72
2023/06/13 04:36:13;;;;;;;13.63;9.52;;;20.30;99.90;;;;;;5011637;28;20415;-72
2023/06/13 04:38:40;;;;;;;12.73;9.35;;;20.40;99.90;;;;;;5031443;28;20420;-72
2023/06/13 04:41:10;;;;;;;13.93;9.73;;;20.40;99.90;;;;;;5015044;28;20495;-72
2023/06/13 04:43:41;;;;;;;11.15;9.07;;;20.50;99.90;;;;;;5041825;28;20497;-72
2023/06/13 04:46:08;;;;;;;13.23;9.40;;;20.50;99.90;;;;;;5011530;28;20438;-72
2023/06/13 04:48:35;;;;;;;15.33;9.60;;;20.50;99.90;;;;;;5011968;28;20776;-72
2023/06/13 04:51:09;;;;;;;12.27;9.10;;;20.50;99.90;;;;;;5010356;28;20443;-72
2023/06/13 04:53:37;;;;;;;12.98;9.27;;;20.50;99.90;;;;;;5015509;28;21117;-72
2023/06/13 04:56:05;;;;;;;13.38;9.63;;;20.60;99.90;;;;;;4998961;28;20778;-72
2023/06/13 04:58:31;;;;;;;14.43;11.13;;;20.60;99.90;;;;;;5010134;28;20439;-72
2023/06/13 05:00:59;;;;;;;14.47;11.10;;;20.70;99.90;;;;;;5006630;28;20415;-72
2023/06/13 05:03:27;;;;;;;14.88;10.85;;;20.70;99.90;;;;;;4999036;28;20424;-72
2023/06/13 10:03:44;;;;;;;7.10;4.10;;;27.00;99.90;;;;;;5093887;27;20564;-74
2023/06/13 10:06:11;;;;;;;6.32;3.70;;;26.90;99.90;;;;;;5073225;28;20445;-73
2023/06/13 10:08:39;;;;;;;4.70;3.03;;;27.20;99.90;;;;;;5076927;28;20409;-73
2023/06/13 10:11:30;;;;;;;6.05;3.22;;;27.50;99.90;;;;;;5079429;28;20403;-74
2023/06/13 10:14:19;;;;;;;5.53;3.30;;;27.70;99.90;;;;;;5078563;28;20407;-74
2023/06/13 10:16:51;;;;;;;5.55;2.88;;;27.80;99.90;;;;;;5088356;28;21125;-74
2023/06/13 10:19:24;;;;;;;5.57;3.15;;;27.90;99.90;;;;;;5080455;28;20471;-73
2023/06/13 10:21:52;;;;;;;6.23;3.20;;;28.00;99.90;;;;;;5074469;28;20419;-74
2023/06/13 10:24:20;;;;;;;6.28;3.20;;;28.00;99.90;;;;;;5067400;28;20491;-73
2023/06/13 10:26:48;;;;;;;6.28;3.30;;;28.00;99.90;;;;;;5089151;28;20405;-74
2023/06/13 10:29:32;;;;;;;4.82;2.97;;;28.00;99.90;;;;;;5070846;28;20473;-74
2023/06/13 10:32:05;;;;;;;5.78;3.08;;;28.00;99.90;;;;;;5085575;28;20412;-73
2023/06/13 10:35:08;;;;;;;6.05;3.45;;;27.90;99.90;;;;;;5072243;28;20895;-73
2023/06/13 10:38:02;;;;;;;7.60;3.45;;;28.00;99.90;;;;;;5075094;28;20473;-74
2023/06/13 10:41:14;;;;;;;5.13;3.03;;;28.00;99.90;;;;;;5086611;28;20405;-73
2023/06/13 10:44:01;;;;;;;6.53;3.72;;;28.20;99.90;;;;;;5070469;28;20424;-74
2023/06/13 10:46:28;;;;;;;6.63;3.45;;;28.10;99.90;;;;;;5075824;28;20425;-73
2023/06/13 10:48:59;;;;;;;4.53;3.03;;;28.10;99.90;;;;;;5084039;28;20420;-74
2023/06/13 10:51:29;;;;;;;6.80;3.00;;;28.10;99.90;;;;;;5075410;28;20551;-73
2023/06/13 10:54:09;;;;;;;5.40;2.85;;;27.90;99.90;;;;;;5071499;28;20419;-74
2023/06/13 10:56:42;;;;;;;5.25;3.10;;;27.90;99.90;;;;;;5083199;28;20424;-74
2023/06/13 10:59:16;;;;;;;5.30;2.78;;;27.80;99.90;;;;;;5071515;28;20487;-73
2023/06/13 11:01:44;;;;;;;4.25;2.72;;;27.90;99.90;;;;;;5071503;28;20418;-73
2023/06/13 11:04:19;;;;;;;5.80;2.60;;;27.80;99.90;;;;;;5068035;28;20408;-73
2023/06/13 11:06:51;;;;;;;4.18;2.60;;;27.80;99.90;;;;;;5058824;28;20610;-73
2023/06/13 11:09:24;;;;;;;7.90;2.40;;;27.80;99.90;;;;;;5053229;28;20974;-74
2023/06/13 11:11:59;;;;;;;4.43;2.70;;;27.90;99.90;;;;;;5057548;28;20411;-73
2023/06/13 11:14:38;;;;;;;5.57;2.75;;;27.90;99.90;;;;;;5055069;28;20901;-73
2023/06/13 11:17:05;;;;;;;6.72;3.30;;;27.80;99.90;;;;;;5057077;28;20431;-73
2023/06/13 11:19:39;;;;;;;4.97;2.30;;;27.90;99.90;;;;;;5056231;28;20416;-76
2023/06/13 11:22:05;;;;;;;3.22;2.58;;;27.80;99.90;;;;;;5056975;28;22687;-74
2023/06/13 11:24:35;;;;;;;5.05;2.80;;;27.80;99.90;;;;;;5052521;28;20424;-75
2023/06/13 11:27:04;;;;;;;7.38;2.53;;;27.80;99.90;;;;;;5063352;28;20434;-75
2023/06/13 11:29:32;;;;;;;6.38;2.65;;;27.90;99.90;;;;;;5057477;28;20405;-74
2023/06/13 11:32:06;;;;;;;5.53;2.67;;;27.80;99.90;;;;;;5062092;28;20415;-74
2023/06/13 11:34:38;;;;;;;5.13;2.50;;;27.80;99.90;;;;;;5054270;28;20471;-75
2023/06/13 11:37:26;;;;;;;5.80;2.50;;;27.60;99.90;;;;;;5065067;28;20429;-75
2023/06/13 11:39:57;;;;;;;3.90;2.60;;;27.70;99.90;;;;;;5063111;28;20403;-75
2023/06/13 11:42:24;;;;;;;4.67;2.90;;;27.70;99.90;;;;;;5070316;28;20416;-75
2023/06/13 11:44:52;;;;;;;6.13;2.53;;;27.60;99.90;;;;;;5057819;28;20495;-75
2023/06/13 11:47:19;;;;;;;4.37;2.70;;;27.60;99.90;;;;;;5055809;28;20476;-75
2023/06/13 11:49:58;;;;;;;3.80;2.50;;;27.60;99.90;;;;;;5057444;28;20920;-75
2023/06/13 11:52:24;;;;;;;6.00;2.72;;;27.70;99.90;;;;;;5060089;28;20419;-74
2023/06/13 11:54:51;;;;;;;5.97;2.80;;;27.70;99.90;;;;;;5055302;28;20409;-74
2023/06/13 11:57:18;;;;;;;5.03;2.50;;;27.60;99.90;;;;;;5064358;28;20556;-75
2023/06/13 11:59:44;;;;;;;3.75;2.70;;;27.60;99.90;;;;;;5055913;28;21017;-75
2023/06/13 12:02:14;;;;;;;5.30;2.60;;;27.60;99.90;;;;;;5064087;28;20499;-75
2023/06/13 12:04:43;;;;;;;5.10;2.60;;;27.60;99.90;;;;;;5063257;28;20501;-74
2023/06/13 12:07:10;;;;;;;3.83;2.33;;;27.60;99.90;;;;;;5061656;28;20410;-75
2023/06/13 12:09:37;;;;;;;5.13;2.70;;;27.60;99.90;;;;;;5058764;28;20420;-75
2023/06/13 12:12:03;;;;;;;7.90;2.63;;;27.50;99.90;;;;;;5071595;28;20778;-75
2023/06/13 12:14:31;;;;;;;4.75;2.70;;;27.60;99.90;;;;;;5067928;28;20421;-75
2023/06/13 12:16:57;;;;;;;4.47;2.58;;;27.60;99.90;;;;;;5056298;28;20411;-75
2023/06/13 12:19:24;;;;;;;5.03;2.55;;;27.60;99.90;;;;;;5074908;28;20426;-75
2023/06/13 12:21:55;;;;;;;4.22;2.70;;;27.60;99.90;;;;;;5040708;28;20422;-75
2023/06/13 12:24:25;;;;;;;4.60;2.80;;;27.50;99.90;;;;;;5055095;28;20484;-75
2023/06/13 12:26:55;;;;;;;5.18;2.80;;;27.50;99.90;;;;;;5055347;28;20467;-75
2023/06/13 12:29:27;;;;;;;6.00;2.78;;;27.40;99.90;;;;;;5061900;28;20409;-75
2023/06/13 12:32:05;;;;;;;4.30;2.95;;;27.40;99.90;;;;;;5059605;28;20468;-75
2023/06/13 12:34:35;;;;;;;4.00;2.40;;;27.40;99.90;;;;;;5053423;28;20929;-74
2023/06/13 12:37:11;;;;;;;4.93;2.80;;;27.40;99.90;;;;;;5055465;28;20439;-74
2023/06/13 12:39:38;;;;;;;4.40;2.27;;;27.40;99.90;;;;;;5061193;28;20402;-74
2023/06/13 12:42:10;;;;;;;5.65;2.40;;;27.30;99.90;;;;;;5073132;28;20514;-74
2023/06/13 12:44:37;;;;;;;4.30;2.50;;;27.20;99.90;;;;;;5053864;28;20912;-75
2023/06/13 12:47:05;;;;;;;5.20;2.60;;;27.10;99.90;;;;;;5054356;28;20393;-75
2023/06/13 12:49:39;;;;;;;4.43;2.63;;;27.10;99.90;;;;;;5060401;28;20479;-75
2023/06/13 12:52:14;;;;;;;4.95;2.90;;;27.10;99.90;;;;;;5053455;28;20471;-75
2023/06/13 12:54:40;;;;;;;3.70;2.60;;;27.20;99.90;;;;;;5056108;28;20492;-75
2023/06/13 12:57:09;;;;;;;3.40;2.28;;;27.10;99.90;;;;;;5057571;28;20457;-75
2023/06/13 12:59:41;;;;;;;5.28;2.70;;;27.10;99.90;;;;;;5060541;28;20411;-75
2023/06/13 13:02:28;;;;;;;5.63;2.58;;;27.20;99.90;;;;;;5042505;28;20416;-75
2023/06/13 13:05:01;;;;;;;5.60;2.78;;;27.20;99.90;;;;;;5062615;28;20403;-74
2023/06/13 13:07:29;;;;;;;4.55;2.70;;;27.30;99.90;;;;;;5061698;28;20796;-75
2023/06/13 13:09:56;;;;;;;4.70;2.60;;;27.20;99.90;;;;;;5072205;28;20412;-75
2023/06/13 13:12:24;;;;;;;5.22;2.80;;;27.20;99.90;;;;;;5058563;28;21223;-75
2023/06/13 13:14:50;;;;;;;4.30;2.80;;;27.20;99.90;;;;;;5036428;28;20406;-75
2023/06/13 13:17:17;;;;;;;4.05;2.80;;;27.20;99.90;;;;;;5067439;28;20426;-75
2023/06/13 13:19:44;;;;;;;6.97;2.90;;;27.10;99.90;;;;;;5055395;28;20522;-75
2023/06/13 13:22:11;;;;;;;5.93;2.70;;;27.00;99.90;;;;;;5056353;28;20417;-75
2023/06/13 13:24:38;;;;;;;4.88;3.00;;;27.00;99.90;;;;;;5051380;28;20420;-75
2023/06/13 13:27:05;;;;;;;6.00;3.03;;;27.00;99.90;;;;;;5057028;28;20766;-75
2023/06/13 13:29:31;;;;;;;7.88;3.10;;;26.90;99.90;;;;;;5054383;28;20424;-75
2023/06/13 13:31:58;;;;;;;5.43;3.00;;;26.90;99.90;;;;;;5058332;28;20409;-74
2023/06/13 13:34:24;;;;;;;5.63;3.00;;;26.90;99.90;;;;;;5078884;28;20884;-74
2023/06/13 13:36:50;;;;;;;5.28;3.00;;;26.90;99.90;;;;;;5055833;28;20395;-75
2023/06/13 13:39:18;;;;;;;6.10;3.03;;;26.60;99.90;;;;;;5060634;28;20403;-74
2023/06/13 13:41:45;;;;;;;8.30;3.28;;;26.70;99.90;;;;;;5068866;28;20421;-74
2023/06/13 13:44:11;;;;;;;5.57;2.80;;;26.70;99.90;;;;;;5056057;28;20404;-74
2023/06/13 13:46:37;;;;;;;5.50;2.92;;;26.60;99.90;;;;;;5054915;28;20408;-75
2023/06/13 13:49:03;;;;;;;5.13;3.10;;;26.40;99.90;;;;;;5064922;28;20406;-75
2023/06/13 13:51:30;;;;;;;3.90;3.03;;;26.50;99.90;;;;;;5069350;28;20463;-74
2023/06/13 13:53:59;;;;;;;5.38;3.13;;;26.50;99.90;;;;;;5057668;28;20457;-74
2023/06/13 13:56:26;;;;;;;5.38;2.97;;;26.60;99.90;;;;;;5051082;28;20518;-74
2023/06/13 13:58:52;;;;;;;5.05;3.08;;;26.60;99.90;;;;;;5042187;28;20501;-74
2023/06/13 14:01:20;;;;;;;4.78;3.22;;;26.50;99.90;;;;;;5063787;28;20412;-75
2023/06/13 14:03:46;;;;;;;7.82;3.58;;;26.50;99.90;;;;;;5059184;28;20803;-74
2023/06/13 14:06:14;;;;;;;5.60;3.17;;;26.50;99.90;;;;;;5056870;28;20423;-75
2023/06/13 14:08:40;;;;;;;5.38;3.47;;;26.50;99.90;;;;;;5059665;28;20409;-75
2023/06/13 14:11:06;;;;;;;7.22;3.47;;;26.50;99.90;;;;;;5060550;28;20801;-74
2023/06/13 14:13:33;;;;;;;6.13;3.22;;;26.50;99.90;;;;;;5058811;28;21101;-74
2023/06/13 14:15:59;;;;;;;7.67;3.33;;;26.40;99.90;;;;;;5053654;28;20925;-74
2023/06/13 14:18:25;;;;;;;5.03;3.00;;;26.30;99.90;;;;;;5060662;28;20424;-75
2023/06/13 14:20:51;;;;;;;6.47;3.30;;;26.30;99.90;;;;;;5059128;28;20405;-74
2023/06/13 14:23:18;;;;;;;5.70;3.47;;;26.20;99.90;;;;;;5056989;28;20422;-75
2023/06/13 14:25:46;;;;;;;8.90;3.63;;;26.30;99.90;;;;;;5060031;28;20532;-75
2023/06/13 14:28:13;;;;;;;6.82;3.30;;;26.20;99.90;;;;;;5060592;28;20446;-74
2023/06/13 14:30:40;;;;;;;7.07;3.30;;;26.10;99.90;;;;;;5056693;28;20407;-75
2023/06/13 14:33:06;;;;;;;8.52;3.50;;;26.10;99.90;;;;;;5058138;28;20413;-75
2023/06/13 14:35:33;;;;;;;5.32;3.38;;;26.10;99.90;;;;;;5053341;28;20420;-75
2023/06/13 14:37:59;;;;;;;7.32;3.45;;;26.00;99.90;;;;;;5054890;28;20824;-75
2023/06/13 14:40:27;;;;;;;6.72;3.70;;;25.80;99.90;;;;;;5060697;28;20417;-74
2023/06/13 14:42:53;;;;;;;7.15;3.40;;;25.80;99.90;;;;;;5059380;28;20619;-74
2023/06/13 14:45:21;;;;;;;5.65;3.40;;;25.80;99.90;;;;;;5061883;28;20492;-74
2023/06/13 14:47:48;;;;;;;6.03;3.50;;;25.70;99.90;;;;;;5055605;28;20967;-74
2023/06/13 14:50:15;;;;;;;5.55;3.50;;;25.60;99.90;;;;;;5062042;28;20407;-75
2023/06/13 14:52:41;;;;;;;6.82;3.30;;;25.40;99.90;;;;;;5059311;28;20416;-74
2023/06/13 14:55:07;;;;;;;8.13;3.20;;;25.40;99.90;;;;;;5062552;28;20399;-75
2023/06/13 14:57:34;;;;;;;6.43;3.58;;;25.40;99.90;;;;;;5069111;28;20417;-74
2023/06/13 15:00:00;;;;;;;8.53;3.70;;;25.30;99.90;;;;;;5057769;28;20818;-74
2023/06/13 15:02:29;;;;;;;7.28;3.58;;;25.30;99.90;;;;;;5071921;28;20930;-74
2023/06/13 15:04:56;;;;;;;6.07;3.50;;;25.30;99.90;;;;;;5063699;28;20718;-74
2023/06/13 15:07:22;;;;;;;10.55;3.63;;;25.30;99.90;;;;;;5056598;28;20405;-74
2023/06/13 15:09:50;;;;;;;8.35;3.53;;;25.20;99.90;;;;;;5063775;28;20415;-74
2023/06/13 15:12:16;;;;;;;6.28;3.28;;;25.10;99.90;;;;;;5057998;28;20494;-74
2023/06/13 15:14:42;;;;;;;6.43;3.30;;;25.10;99.90;;;;;;5057747;28;20409;-74
2023/06/13 15:17:08;;;;;;;6.32;3.22;;;25.20;99.90;;;;;;5060320;28;20461;-74
2023/06/13 15:19:35;;;;;;;5.53;3.42;;;25.10;99.90;;;;;;5059309;28;20425;-74
2023/06/13 15:22:01;;;;;;;6.22;3.13;;;25.10;99.90;;;;;;5057833;28;20411;-75
2023/06/13 15:24:27;;;;;;;7.38;3.67;;;25.10;99.90;;;;;;5042126;28;20798;-74
2023/06/13 15:26:54;;;;;;;4.72;3.33;;;25.00;99.90;;;;;;5058209;28;20395;-74
2023/06/13 15:29:20;;;;;;;5.50;3.38;;;25.10;99.90;;;;;;5062634;28;20410;-75
2023/06/13 15:31:46;;;;;;;6.25;3.30;;;25.00;99.90;;;;;;5057173;28;20407;-74
2023/06/13 15:34:12;;;;;;;7.68;3.50;;;25.00;99.90;;;;;;5060984;28;20458;-74
2023/06/13 15:36:38;;;;;;;6.93;3.27;;;25.10;99.90;;;;;;5053803;28;20414;-74
2023/06/13 15:39:06;;;;;;;5.03;3.30;;;25.00;99.90;;;;;;5061429;28;20439;-75
2023/06/13 15:41:36;;;;;;;5.50;3.50;;;25.10;99.90;;;;;;5058447;28;21015;-75
2023/06/13 15:44:03;;;;;;;5.93;3.60;;;25.00;99.90;;;;;;5060762;28;20911;-75
2023/06/13 15:46:30;;;;;;;5.90;3.30;;;25.00;99.90;;;;;;5062681;28;20407;-75
2023/06/13 15:48:57;;;;;;;7.07;3.40;;;24.90;99.90;;;;;;5059775;28;20415;-75
2023/06/13 15:51:24;;;;;;;6.03;3.83;;;24.90;99.90;;;;;;5060956;28;20411;-75
2023/06/13 15:53:50;;;;;;;5.10;3.35;;;24.80;99.90;;;;;;5050065;28;20422;-75
2023/06/13 15:56:16;;;;;;;6.80;3.42;;;24.80;99.90;;;;;;5055374;28;20415;-75
2023/06/13 15:58:43;;;;;;;6.00;3.40;;;24.70;99.90;;;;;;5060313;28;20403;-75
2023/06/13 16:01:13;;;;;;;7.13;3.50;;;24.70;99.90;;;;;;5061403;28;20924;-75
2023/06/13 16:03:40;;;;;;;9.85;4.15;;;24.70;99.90;;;;;;5047052;28;20410;-75
2023/06/13 16:06:06;;;;;;;7.43;3.30;;;24.50;99.90;;;;;;5062642;28;20407;-75
2023/06/13 16:08:36;;;;;;;8.52;3.67;;;24.50;99.90;;;;;;5063181;28;20411;-75
2023/06/13 16:11:02;;;;;;;6.80;3.47;;;24.50;99.90;;;;;;5061173;28;20443;-75
2023/06/13 16:13:29;;;;;;;7.30;3.50;;;24.40;99.90;;;;;;5054441;28;21184;-75
2023/06/13 16:15:55;;;;;;;6.10;3.60;;;24.30;99.90;;;;;;5059335;28;20421;-75
2023/06/13 16:18:21;;;;;;;7.60;3.30;;;24.30;99.90;;;;;;5059163;28;20490;-75
2023/06/13 16:20:48;;;;;;;6.63;3.60;;;24.30;99.90;;;;;;5056055;28;20399;-75
2023/06/13 16:23:17;;;;;;;5.47;3.50;;;24.30;99.90;;;;;;5049836;28;21380;-75
2023/06/13 16:25:45;;;;;;;7.70;3.33;;;24.30;99.90;;;;;;5058376;28;20413;-75
2023/06/13 16:28:12;;;;;;;7.93;3.38;;;24.30;99.90;;;;;;5059698;28;20408;-75
2023/06/13 16:30:39;;;;;;;5.80;3.30;;;24.00;99.90;;;;;;5053160;28;20797;-75
2023/06/13 16:33:06;;;;;;;9.75;3.67;;;24.00;99.90;;;;;;5060039;28;20747;-75
2023/06/13 16:35:34;;;;;;;8.15;3.53;;;24.00;99.90;;;;;;5060897;28;20833;-75
2023/06/13 16:38:00;;;;;;;6.63;3.65;;;24.00;99.90;;;;;;5055541;28;20858;-75
2023/06/13 16:40:26;;;;;;;7.03;3.33;;;24.00;99.90;;;;;;5060634;28;20442;-75
2023/06/13 16:42:52;;;;;;;6.87;3.73;;;23.80;99.90;;;;;;5046082;28;21015;-75
2023/06/13 16:45:19;;;;;;;5.90;3.40;;;23.70;99.90;;;;;;5052859;28;20432;-74
2023/06/13 16:47:46;;;;;;;7.82;3.50;;;23.70;99.90;;;;;;5069008;28;20752;-74
2023/06/13 16:50:12;;;;;;;8.35;3.42;;;23.70;99.90;;;;;;5061278;28;20461;-75
2023/06/13 16:52:38;;;;;;;8.75;3.75;;;23.70;99.90;;;;;;5059386;28;21222;-75
2023/06/13 16:55:07;;;;;;;6.47;3.60;;;23.60;99.90;;;;;;5056704;28;20412;-74
2023/06/13 16:57:33;;;;;;;6.22;3.30;;;23.60;99.90;;;;;;5068526;28;20470;-74
2023/06/13 16:59:59;;;;;;;7.40;3.70;;;23.50;99.90;;;;;;5042834;28;20893;-75
2023/06/13 17:02:26;;;;;;;7.60;3.47;;;23.40;99.90;;;;;;5053654;28;20447;-74
2023/06/13 17:04:52;;;;;;;9.75;4.10;;;23.30;99.90;;;;;;5053056;28;20489;-75
2023/06/13 17:07:19;;;;;;;9.10;4.05;;;23.20;99.90;;;;;;5060854;28;20400;-75
2023/06/13 17:09:45;;;;;;;11.13;4.20;;;23.20;99.90;;;;;;5058376;28;20413;-74
2023/06/13 17:12:11;;;;;;;7.50;4.18;;;23.00;99.90;;;;;;5059308;28;20500;-75
2023/06/13 17:14:38;;;;;;;8.40;4.47;;;23.00;99.90;;;;;;5052434;28;20466;-75
2023/06/13 17:17:04;;;;;;;9.52;4.50;;;23.00;99.90;;;;;;5062643;28;20530;-74
2023/06/13 17:19:31;;;;;;;10.55;4.28;;;23.00;99.90;;;;;;5053655;28;20406;-75
2023/06/13 17:21:57;;;;;;;10.38;4.60;;;22.90;99.90;;;;;;5037673;28;20962;-75
2023/06/13 17:24:23;;;;;;;10.10;4.70;;;22.80;99.90;;;;;;5053477;28;20409;-74
2023/06/13 17:26:50;;;;;;;10.73;4.80;;;22.70;99.90;;;;;;5054970;28;20899;-75
2023/06/13 17:29:16;;;;;;;10.38;4.45;;;22.70;99.90;;;;;;5056113;28;20409;-75
2023/06/13 17:31:42;;;;;;;12.27;5.37;;;22.50;99.90;;;;;;5070637;28;20876;-75
2023/06/13 17:34:09;;;;;;;7.05;5.00;;;22.50;99.90;;;;;;5054791;28;20408;-74
2023/06/13 17:36:35;;;;;;;11.30;5.72;;;22.40;99.90;;;;;;5055971;28;20502;-75
2023/06/13 17:39:01;;;;;;;8.77;6.17;;;22.30;99.90;;;;;;5058286;28;20407;-75
2023/06/13 17:41:28;;;;;;;10.40;5.80;;;22.30;99.90;;;;;;5070878;28;20769;-75
2023/06/13 17:43:54;;;;;;;8.15;5.97;;;22.40;99.90;;;;;;5043762;28;20437;-74
2023/06/13 17:46:20;;;;;;;10.10;6.03;;;22.40;99.90;;;;;;5053195;28;20408;-75
2023/06/13 17:48:47;;;;;;;8.85;6.00;;;22.30;99.90;;;;;;5040529;28;20443;-75
2023/06/13 17:51:13;;;;;;;11.43;6.13;;;22.40;99.90;;;;;;5055981;28;20405;-74